sensor_id;sensor_type;location;lat;lon;timestamp;pressure;altitude;pressure_sealevel;temperature;humidity
4528;BME280;62320;51.520;6.818;2023-05-21T00:00:10;101291.81;;;15.53;73.73
4528;BME280;62320;51.520;6.818;2023-05-21T00:10:33;101275.56;;;15.30;78.35
4528;BME280;62320;51.520;6.818;2023-05-21T00:20:54;101267.16;;;15.02;80.29
4528;BME280;62320;51.520;6.818;2023-05-21T00:31:16;101258.50;;;15.04;76.04
4528;BME280;62320;51.520;6.818;2023-05-21T00:41:39;101253.19;;;15.11;77.32
4528;BME280;62320;51.520;6.818;2023-05-21T00:52:04;101242.31;;;14.71;79.98
4528;BME280;62320;51.520;6.818;2023-05-21T01:02:26;101249.47;;;14.45;85.46
4528;BME280;62320;51.520;6.818;2023-05-21T01:12:48;101241.53;;;14.59;79.70
4528;BME280;62320;51.520;6.818;2023-05-21T01:23:11;101233.91;;;14.39;82.63
4528;BME280;62320;51.520;6.818;2023-05-21T01:33:40;101224.28;;;14.50;79.24
4528;BME280;62320;51.520;6.818;2023-05-21T01:44:07;101221.69;;;14.47;80.61
4528;BME280;62320;51.520;6.818;2023-05-21T01:54:29;101217.44;;;14.36;83.60
4528;BME280;62320;51.520;6.818;2023-05-21T02:04:51;101210.56;;;14.25;84.80
4528;BME280;62320;51.520;6.818;2023-05-21T02:15:13;101209.69;;;14.28;80.85
4528;BME280;62320;51.520;6.818;2023-05-21T02:25:35;101208.94;;;14.14;82.04
4528;BME280;62320;51.520;6.818;2023-05-21T02:35:57;101209.06;;;13.93;87.80
4528;BME280;62320;51.520;6.818;2023-05-21T02:46:19;101209.88;;;13.99;83.89
4528;BME280;62320;51.520;6.818;2023-05-21T02:56:41;101206.38;;;14.08;80.27
4528;BME280;62320;51.520;6.818;2023-05-21T03:07:04;101206.56;;;13.79;85.32
4528;BME280;62320;51.520;6.818;2023-05-21T03:17:26;101197.16;;;13.62;88.86
4528;BME280;62320;51.520;6.818;2023-05-21T03:27:48;101199.63;;;13.77;82.76
4528;BME280;62320;51.520;6.818;2023-05-21T03:38:09;101188.41;;;13.75;83.74
4528;BME280;62320;51.520;6.818;2023-05-21T03:48:31;101183.38;;;13.49;89.92
4528;BME280;62320;51.520;6.818;2023-05-21T03:58:53;101188.44;;;13.69;86.02
4528;BME280;62320;51.520;6.818;2023-05-21T04:09:15;101201.50;;;13.56;88.76
4528;BME280;62320;51.520;6.818;2023-05-21T04:19:37;101199.78;;;13.52;90.95
4528;BME280;62320;51.520;6.818;2023-05-21T04:29:59;101195.44;;;13.61;88.91
4528;BME280;62320;51.520;6.818;2023-05-21T04:40:21;101201.50;;;13.56;88.32
4528;BME280;62320;51.520;6.818;2023-05-21T04:50:45;101207.53;;;13.58;91.66
4528;BME280;62320;51.520;6.818;2023-05-21T05:01:07;101199.72;;;13.66;87.71
4528;BME280;62320;51.520;6.818;2023-05-21T05:11:29;101211.81;;;13.70;89.95
4528;BME280;62320;51.520;6.818;2023-05-21T05:21:51;101208.34;;;13.73;93.46
4528;BME280;62320;51.520;6.818;2023-05-21T05:32:13;101197.69;;;14.10;84.17
4528;BME280;62320;51.520;6.818;2023-05-21T05:42:35;101189.88;;;14.15;90.51
4528;BME280;62320;51.520;6.818;2023-05-21T05:52:57;101174.97;;;14.34;88.55
4528;BME280;62320;51.520;6.818;2023-05-21T06:03:19;101184.44;;;14.44;90.87
4528;BME280;62320;51.520;6.818;2023-05-21T06:13:20;101187.72;;;14.64;89.96
4528;BME280;62320;51.520;6.818;2023-05-21T06:23:22;101188.38;;;14.85;87.88
4528;BME280;62320;51.520;6.818;2023-05-21T06:33:24;101175.09;;;15.08;85.54
4528;BME280;62320;51.520;6.818;2023-05-21T06:43:27;101167.00;;;15.28;88.82
4528;BME280;62320;51.520;6.818;2023-05-21T06:53:29;101164.09;;;15.53;84.66
4528;BME280;62320;51.520;6.818;2023-05-21T07:03:30;101148.91;;;15.81;87.36
4528;BME280;62320;51.520;6.818;2023-05-21T07:13:34;101151.69;;;16.22;84.05
4528;BME280;62320;51.520;6.818;2023-05-21T07:31:06;101175.31;;;16.67;84.53
4528;BME280;62320;51.520;6.818;2023-05-21T07:41:27;101163.25;;;17.04;83.09
4528;BME280;62320;51.520;6.818;2023-05-21T07:52:07;101157.94;;;17.50;81.87
4528;BME280;62320;51.520;6.818;2023-05-21T08:02:48;101149.28;;;18.21;80.48
4528;BME280;62320;51.520;6.818;2023-05-21T08:13:28;101159.03;;;18.50;77.92
4528;BME280;62320;51.520;6.818;2023-05-21T08:24:09;101162.84;;;18.71;77.98
4528;BME280;62320;51.520;6.818;2023-05-21T08:34:50;101165.06;;;19.15;76.37
4528;BME280;62320;51.520;6.818;2023-05-21T08:45:34;101183.66;;;19.38;75.04
4528;BME280;62320;51.520;6.818;2023-05-21T08:56:20;101169.78;;;19.64;73.87
4528;BME280;62320;51.520;6.818;2023-05-21T09:07:00;101164.09;;;19.77;73.71
4528;BME280;62320;51.520;6.818;2023-05-21T09:17:46;101150.41;;;20.22;73.58
4528;BME280;62320;51.520;6.818;2023-05-21T09:28:28;101144.28;;;20.47;72.12
4528;BME280;62320;51.520;6.818;2023-05-21T09:39:09;101144.38;;;20.69;72.33
4528;BME280;62320;51.520;6.818;2023-05-21T09:50:02;101140.34;;;20.84;70.37
4528;BME280;62320;51.520;6.818;2023-05-21T10:00:43;101128.63;;;20.92;70.79
4528;BME280;62320;51.520;6.818;2023-05-21T10:11:25;101115.00;;;20.81;70.91
4528;BME280;62320;51.520;6.818;2023-05-21T10:22:07;101122.94;;;21.04;71.77
4528;BME280;62320;51.520;6.818;2023-05-21T10:32:48;101094.66;;;21.11;69.69
4528;BME280;62320;51.520;6.818;2023-05-21T10:43:55;101082.56;;;21.28;70.09
4528;BME280;62320;51.520;6.818;2023-05-21T10:54:40;101084.19;;;21.33;69.73
4528;BME280;62320;51.520;6.818;2023-05-21T11:05:07;101072.16;;;21.47;69.83
4528;BME280;62320;51.520;6.818;2023-05-21T11:15:28;101066.59;;;21.55;69.33
4528;BME280;62320;51.520;6.818;2023-05-21T11:26:00;101075.97;;;21.62;69.90
4528;BME280;62320;51.520;6.818;2023-05-21T11:36:21;101065.25;;;21.66;70.05
4528;BME280;62320;51.520;6.818;2023-05-21T11:46:42;101066.06;;;21.68;69.19
4528;BME280;62320;51.520;6.818;2023-05-21T11:57:06;101066.84;;;21.92;69.15
4528;BME280;62320;51.520;6.818;2023-05-21T12:07:27;101060.22;;;21.82;69.41
4528;BME280;62320;51.520;6.818;2023-05-21T12:17:50;101054.31;;;22.17;68.61
4528;BME280;62320;51.520;6.818;2023-05-21T12:28:12;101047.16;;;22.41;68.00
4528;BME280;62320;51.520;6.818;2023-05-21T12:38:33;101030.41;;;22.22;68.70
4528;BME280;62320;51.520;6.818;2023-05-21T12:48:53;101036.72;;;22.38;68.73
4528;BME280;62320;51.520;6.818;2023-05-21T12:59:17;101018.41;;;22.55;68.36
4528;BME280;62320;51.520;6.818;2023-05-21T13:09:37;101015.50;;;22.61;68.37
4528;BME280;62320;51.520;6.818;2023-05-21T13:20:17;100998.84;;;22.79;68.34
4528;BME280;62320;51.520;6.818;2023-05-21T13:30:39;100991.47;;;23.04;66.13
4528;BME280;62320;51.520;6.818;2023-05-21T13:41:20;101005.31;;;23.09;66.63
4528;BME280;62320;51.520;6.818;2023-05-21T13:51:40;100993.47;;;23.18;66.55
4528;BME280;62320;51.520;6.818;2023-05-21T14:02:01;100984.97;;;23.30;67.25
4528;BME280;62320;51.520;6.818;2023-05-21T14:12:21;100990.16;;;23.31;66.45
4528;BME280;62320;51.520;6.818;2023-05-21T14:22:42;100993.56;;;23.33;66.98
4528;BME280;62320;51.520;6.818;2023-05-21T14:33:02;100999.50;;;23.38;66.96
4528;BME280;62320;51.520;6.818;2023-05-21T14:43:22;100986.81;;;23.64;66.40
4528;BME280;62320;51.520;6.818;2023-05-21T14:53:42;100994.31;;;23.54;66.75
4528;BME280;62320;51.520;6.818;2023-05-21T15:04:23;100992.16;;;23.79;65.68
4528;BME280;62320;51.520;6.818;2023-05-21T15:15:04;100979.66;;;23.66;65.08
4528;BME280;62320;51.520;6.818;2023-05-21T15:25:25;100969.25;;;23.63;66.87
4528;BME280;62320;51.520;6.818;2023-05-21T15:35:45;100958.78;;;23.78;66.26
4528;BME280;62320;51.520;6.818;2023-05-21T15:46:05;100948.44;;;23.74;66.63
4528;BME280;62320;51.520;6.818;2023-05-21T15:56:26;100932.19;;;23.81;66.31
4528;BME280;62320;51.520;6.818;2023-05-21T16:06:47;100947.50;;;23.75;66.18
4528;BME280;62320;51.520;6.818;2023-05-21T16:17:07;100952.47;;;23.81;65.41
4528;BME280;62320;51.520;6.818;2023-05-21T16:27:28;100947.19;;;23.81;65.57
4528;BME280;62320;51.520;6.818;2023-05-21T16:37:51;100942.53;;;23.86;66.06
4528;BME280;62320;51.520;6.818;2023-05-21T16:48:32;100926.91;;;23.81;66.57
4528;BME280;62320;51.520;6.818;2023-05-21T16:58:56;100911.50;;;24.06;65.62
4528;BME280;62320;51.520;6.818;2023-05-21T17:09:16;100924.84;;;24.03;65.75
4528;BME280;62320;51.520;6.818;2023-05-21T17:19:37;100938.47;;;24.13;65.54
4528;BME280;62320;51.520;6.818;2023-05-21T17:29:58;100944.19;;;24.04;66.13
4528;BME280;62320;51.520;6.818;2023-05-21T17:40:18;100948.34;;;23.92;66.93
4528;BME280;62320;51.520;6.818;2023-05-21T17:50:59;100951.25;;;24.03;67.22
4528;BME280;62320;51.520;6.818;2023-05-21T18:01:40;100953.31;;;23.81;68.02
4528;BME280;62320;51.520;6.818;2023-05-21T18:12:21;100945.72;;;23.75;68.30
4528;BME280;62320;51.520;6.818;2023-05-21T18:33:42;100941.78;;;23.67;69.30
4528;BME280;62320;51.520;6.818;2023-05-21T18:44:22;100939.50;;;23.59;69.87
4528;BME280;62320;51.520;6.818;2023-05-21T18:55:04;100926.78;;;23.50;70.99
4528;BME280;62320;51.520;6.818;2023-05-21T19:05:45;100937.38;;;23.31;71.25
4528;BME280;62320;51.520;6.818;2023-05-21T19:16:26;100953.78;;;23.19;71.50
4528;BME280;62320;51.520;6.818;2023-05-21T19:27:06;100948.09;;;22.93;73.03
4528;BME280;62320;51.520;6.818;2023-05-21T19:37:47;100959.56;;;22.92;72.11
4528;BME280;62320;51.520;6.818;2023-05-21T19:48:28;100952.47;;;22.75;73.01
4528;BME280;62320;51.520;6.818;2023-05-21T19:59:09;100963.22;;;22.70;72.06
4528;BME280;62320;51.520;6.818;2023-05-21T20:09:50;100959.25;;;22.62;70.40
4528;BME280;62320;51.520;6.818;2023-05-21T20:20:31;100965.03;;;22.50;70.66
4528;BME280;62320;51.520;6.818;2023-05-21T20:31:13;100970.06;;;22.36;72.57
4528;BME280;62320;51.520;6.818;2023-05-21T20:41:54;100965.22;;;22.27;73.21
4528;BME280;62320;51.520;6.818;2023-05-21T20:52:35;100969.41;;;22.12;75.55
4528;BME280;62320;51.520;6.818;2023-05-21T21:03:16;100973.22;;;22.05;73.76
4528;BME280;62320;51.520;6.818;2023-05-21T21:13:58;100993.97;;;21.92;76.17
4528;BME280;62320;51.520;6.818;2023-05-21T21:24:38;101011.19;;;21.79;81.92
4528;BME280;62320;51.520;6.818;2023-05-21T21:35:19;101000.91;;;21.31;89.27
4528;BME280;62320;51.520;6.818;2023-05-21T21:46:00;101000.97;;;20.85;91.80
4528;BME280;62320;51.520;6.818;2023-05-21T21:56:41;100981.81;;;20.60;95.28
4528;BME280;62320;51.520;6.818;2023-05-21T22:07:21;100980.81;;;20.39;95.09
4528;BME280;62320;51.520;6.818;2023-05-21T22:18:03;100971.22;;;20.38;95.24
4528;BME280;62320;51.520;6.818;2023-05-21T22:28:43;100951.84;;;19.93;98.73
4528;BME280;62320;51.520;6.818;2023-05-21T22:39:24;100943.75;;;19.99;91.77
4528;BME280;62320;51.520;6.818;2023-05-21T22:50:06;100968.94;;;20.05;88.33
4528;BME280;62320;51.520;6.818;2023-05-21T23:00:47;100985.25;;;20.13;87.98
4528;BME280;62320;51.520;6.818;2023-05-21T23:11:28;100981.59;;;19.93;86.95
4528;BME280;62320;51.520;6.818;2023-05-21T23:22:08;100957.91;;;19.70;93.11
4528;BME280;62320;51.520;6.818;2023-05-21T23:32:49;100952.38;;;19.53;92.37
4528;BME280;62320;51.520;6.818;2023-05-21T23:43:30;100939.44;;;19.47;89.78
4528;BME280;62320;51.520;6.818;2023-05-21T23:54:10;100933.97;;;19.55;89.66
